createdAt,value
2023-04-16T00:00:03.710Z,65.47
2023-04-16T00:01:03.752Z,65.47
2023-04-16T00:02:03.782Z,65.47
2023-04-16T00:03:03.854Z,65.47
2023-04-16T00:04:03.971Z,65.37
2023-04-16T00:05:03.819Z,65.37
2023-04-16T00:06:03.634Z,65.47
2023-04-16T00:07:03.615Z,65.47
2023-04-16T00:08:03.599Z,65.37
2023-04-16T00:09:03.595Z,65.37
2023-04-16T00:10:03.605Z,65.37
2023-04-16T00:11:03.595Z,65.37
2023-04-16T00:12:03.561Z,65.37
2023-04-16T00:13:03.551Z,65.37
2023-04-16T00:14:03.540Z,65.37
2023-04-16T00:15:03.573Z,65.37
2023-04-16T00:16:03.515Z,65.37
2023-04-16T00:17:03.627Z,65.47
2023-04-16T00:18:03.574Z,65.47
2023-04-16T00:19:03.492Z,65.47
2023-04-16T00:20:03.512Z,65.47
2023-04-16T00:21:03.464Z,65.47
2023-04-16T00:22:03.455Z,65.47
2023-04-16T00:23:03.446Z,65.47
2023-04-16T00:24:03.427Z,65.47
2023-04-16T00:25:03.448Z,65.47
2023-04-16T00:26:03.453Z,65.47
2023-04-16T00:27:03.396Z,65.47
2023-04-16T00:28:03.387Z,65.47
2023-04-16T00:29:03.380Z,65.37
2023-04-16T00:30:03.408Z,65.47
2023-04-16T00:31:03.403Z,65.47
2023-04-16T00:32:03.355Z,65.47
2023-04-16T00:33:03.375Z,65.47
2023-04-16T00:34:03.339Z,65.47
2023-04-16T00:35:03.325Z,65.47
2023-04-16T00:36:03.325Z,65.47
2023-04-16T00:37:03.284Z,65.47
2023-04-16T00:38:03.277Z,65.47
2023-04-16T00:39:03.290Z,65.47
2023-04-16T00:40:03.267Z,65.47
2023-04-16T00:41:03.283Z,65.47
2023-04-16T00:42:03.253Z,65.47
2023-04-16T00:43:03.242Z,65.47
2023-04-16T00:44:03.210Z,65.47
2023-04-16T00:45:03.243Z,65.37
2023-04-16T00:46:03.207Z,65.37
2023-04-16T00:47:03.184Z,65.37
2023-04-16T00:48:03.221Z,65.37
2023-04-16T00:49:03.176Z,65.47
2023-04-16T00:50:03.146Z,65.47
2023-04-16T00:51:03.162Z,65.47
2023-04-16T00:52:03.129Z,65.47
2023-04-16T00:53:03.113Z,65.47
2023-04-16T00:54:03.102Z,65.47
2023-04-16T00:55:03.220Z,65.47
2023-04-16T00:56:03.108Z,65.37
2023-04-16T00:57:03.067Z,65.47
2023-04-16T00:58:03.064Z,65.47
2023-04-16T00:59:03.075Z,65.47
2023-04-16T01:00:03.033Z,65.47
2023-04-16T01:01:03.216Z,65.47
2023-04-16T01:02:03.118Z,65.47
2023-04-16T01:03:03.270Z,65.47
2023-04-16T01:04:03.095Z,65.47
2023-04-16T01:05:03.063Z,65.47
2023-04-16T01:06:03.032Z,65.47
2023-04-16T01:07:02.964Z,65.47
2023-04-16T01:08:02.960Z,65.47
2023-04-16T01:09:02.943Z,65.47
2023-04-16T01:10:02.939Z,65.47
2023-04-16T01:11:02.952Z,65.47
2023-04-16T01:12:02.913Z,65.47
2023-04-16T01:13:02.903Z,65.47
2023-04-16T01:14:02.891Z,65.47
2023-04-16T01:15:02.908Z,65.47
2023-04-16T01:16:02.933Z,65.47
2023-04-16T01:17:02.858Z,65.47
2023-04-16T01:18:02.906Z,65.47
2023-04-16T01:19:02.870Z,65.47
2023-04-16T01:20:02.962Z,65.47
2023-04-16T01:21:02.924Z,65.47
2023-04-16T01:22:02.846Z,65.47
2023-04-16T01:23:02.912Z,65.47
2023-04-16T01:24:02.871Z,65.47
2023-04-16T01:25:02.775Z,65.47
2023-04-16T01:26:02.796Z,65.47
2023-04-16T01:27:02.753Z,65.47
2023-04-16T01:28:02.740Z,65.47
2023-04-16T01:29:02.734Z,65.47
2023-04-16T01:30:02.717Z,65.47
2023-04-16T01:31:02.777Z,65.47
2023-04-16T01:32:02.698Z,65.47
2023-04-16T01:33:02.824Z,65.47
2023-04-16T01:34:02.726Z,65.47
2023-04-16T01:35:02.664Z,65.47
2023-04-16T01:36:02.686Z,65.47
2023-04-16T01:37:02.677Z,65.47
2023-04-16T01:38:02.630Z,65.47
2023-04-16T01:39:02.627Z,65.47
2023-04-16T01:40:02.614Z,65.47
2023-04-16T01:41:02.656Z,65.47
2023-04-16T01:42:02.608Z,65.47
2023-04-16T01:43:02.576Z,65.47
2023-04-16T01:44:02.569Z,65.47
2023-04-16T01:45:02.555Z,65.47
2023-04-16T01:46:02.582Z,65.47
2023-04-16T01:47:02.592Z,65.47
2023-04-16T01:48:02.611Z,65.47
2023-04-16T01:49:02.546Z,65.47
2023-04-16T01:50:02.515Z,65.47
2023-04-16T01:51:02.523Z,65.47
2023-04-16T01:52:02.490Z,65.47
2023-04-16T01:53:02.494Z,65.47
2023-04-16T01:54:02.476Z,65.47
2023-04-16T01:55:02.449Z,65.47
2023-04-16T01:56:02.446Z,65.47
2023-04-16T01:57:02.455Z,65.47
2023-04-16T01:58:02.415Z,65.47
2023-04-16T01:59:02.419Z,65.47
2023-04-16T02:00:02.444Z,65.47
2023-04-16T02:01:02.457Z,65.47
2023-04-16T02:02:02.497Z,65.47
2023-04-16T02:03:02.720Z,65.37
2023-04-16T02:04:02.400Z,65.47
2023-04-16T02:05:02.340Z,65.37
2023-04-16T02:06:02.333Z,65.37
2023-04-16T02:07:02.357Z,65.47
2023-04-16T02:08:02.345Z,65.47
2023-04-16T02:09:02.331Z,65.47
2023-04-16T02:10:02.317Z,65.47
2023-04-16T02:11:02.279Z,65.47
2023-04-16T02:12:02.260Z,65.37
2023-04-16T02:13:02.285Z,65.47
2023-04-16T02:14:02.292Z,65.47
2023-04-16T02:15:02.241Z,65.47
2023-04-16T02:16:02.277Z,65.47
2023-04-16T02:17:02.216Z,65.47
2023-04-16T02:18:02.265Z,65.37
2023-04-16T02:19:02.187Z,65.47
2023-04-16T02:20:02.181Z,65.47
2023-04-16T02:21:02.198Z,65.47
2023-04-16T02:22:02.166Z,65.37
2023-04-16T02:23:02.140Z,65.37
2023-04-16T02:24:02.127Z,65.47
2023-04-16T02:25:02.262Z,65.47
2023-04-16T02:26:02.155Z,65.37
2023-04-16T02:27:02.096Z,65.37
2023-04-16T02:28:02.086Z,65.47
2023-04-16T02:29:02.098Z,65.47
2023-04-16T02:30:02.067Z,65.47
2023-04-16T02:31:02.211Z,65.37
2023-04-16T02:32:02.082Z,65.47
2023-04-16T02:33:02.078Z,65.47
2023-04-16T02:34:02.048Z,65.37
2023-04-16T02:35:02.011Z,65.47
2023-04-16T02:36:02.046Z,65.47
2023-04-16T02:37:02.024Z,65.47
2023-04-16T02:38:02.001Z,65.47
2023-04-16T02:39:01.963Z,65.47
2023-04-16T02:40:01.984Z,65.47
2023-04-16T02:41:01.999Z,65.47
2023-04-16T02:42:01.933Z,65.47
2023-04-16T02:43:01.985Z,65.47
2023-04-16T02:44:01.917Z,65.47
2023-04-16T02:45:01.930Z,65.47
2023-04-16T02:46:02.050Z,65.47
2023-04-16T02:47:01.888Z,65.47
2023-04-16T02:48:01.898Z,65.47
2023-04-16T02:49:01.861Z,65.47
2023-04-16T02:50:01.881Z,65.47
2023-04-16T02:51:01.836Z,65.47
2023-04-16T02:52:01.824Z,65.47
2023-04-16T02:53:01.823Z,65.47
2023-04-16T02:54:01.803Z,65.47
2023-04-16T02:55:01.828Z,65.47
2023-04-16T02:56:01.784Z,65.47
2023-04-16T02:57:01.802Z,65.47
2023-04-16T02:58:01.794Z,65.47
2023-04-16T02:59:01.747Z,65.47
2023-04-16T03:00:01.748Z,65.47
2023-04-16T03:01:01.868Z,65.47
2023-04-16T03:02:01.757Z,65.47
2023-04-16T03:03:01.847Z,65.47
2023-04-16T03:04:01.797Z,65.47
2023-04-16T03:05:01.685Z,65.47
2023-04-16T03:06:01.673Z,65.47
2023-04-16T03:07:01.660Z,65.47
2023-04-16T03:08:01.693Z,65.47
2023-04-16T03:09:01.651Z,65.47
2023-04-16T03:10:01.680Z,65.47
2023-04-16T03:11:01.625Z,65.47
2023-04-16T03:12:01.634Z,65.47
2023-04-16T03:13:01.624Z,65.47
2023-04-16T03:14:01.620Z,65.47
2023-04-16T03:15:01.644Z,65.47
2023-04-16T03:16:01.681Z,65.47
2023-04-16T03:17:01.557Z,65.47
2023-04-16T03:18:01.695Z,65.47
2023-04-16T03:19:01.537Z,65.47
2023-04-16T03:20:01.527Z,65.47
2023-04-16T03:21:01.513Z,65.47
2023-04-16T03:22:01.496Z,65.47
2023-04-16T03:23:01.516Z,65.47
2023-04-16T03:24:01.480Z,65.47
2023-04-16T03:25:01.502Z,65.47
2023-04-16T03:26:01.467Z,65.47
2023-04-16T03:27:01.475Z,65.47
2023-04-16T03:28:01.432Z,65.47
2023-04-16T03:29:01.490Z,65.47
2023-04-16T03:30:01.449Z,65.47
2023-04-16T03:31:01.475Z,65.47
2023-04-16T03:32:01.427Z,65.57
2023-04-16T03:33:01.497Z,65.47
2023-04-16T03:34:01.455Z,65.47
2023-04-16T03:35:01.368Z,65.47
2023-04-16T03:36:01.347Z,65.47
2023-04-16T03:37:01.366Z,65.47
2023-04-16T03:38:01.352Z,65.47
2023-04-16T03:39:01.372Z,65.47
2023-04-16T03:40:01.308Z,65.47
2023-04-16T03:41:01.299Z,65.47
2023-04-16T03:42:01.321Z,65.47
2023-04-16T03:43:01.303Z,65.47
2023-04-16T03:44:01.262Z,65.47
2023-04-16T03:45:01.299Z,65.47
2023-04-16T03:46:01.259Z,65.47
2023-04-16T03:47:01.226Z,65.47
2023-04-16T03:48:01.249Z,65.47
2023-04-16T03:49:01.232Z,65.57
2023-04-16T03:50:01.192Z,65.47
2023-04-16T03:51:01.181Z,65.57
2023-04-16T03:52:01.175Z,65.47
2023-04-16T03:53:01.196Z,65.47
2023-04-16T03:54:01.151Z,65.47
2023-04-16T03:55:01.152Z,65.47
2023-04-16T03:56:01.138Z,65.47
2023-04-16T03:57:01.131Z,65.47
2023-04-16T03:58:01.136Z,65.47
2023-04-16T03:59:01.097Z,65.47
2023-04-16T04:00:01.113Z,65.47
2023-04-16T04:01:01.095Z,65.47
2023-04-16T04:02:01.127Z,65.47
2023-04-16T04:03:01.239Z,65.47
2023-04-16T04:04:01.259Z,65.47
2023-04-16T04:05:01.106Z,65.47
2023-04-16T04:06:01.029Z,65.57
2023-04-16T04:07:01.014Z,65.57
2023-04-16T04:08:00.998Z,65.57
2023-04-16T04:09:01.021Z,65.57
2023-04-16T04:10:00.976Z,65.47
2023-04-16T04:11:00.966Z,65.47
2023-04-16T04:12:00.962Z,65.47
2023-04-16T04:13:00.959Z,65.57
2023-04-16T04:14:00.966Z,65.57
2023-04-16T04:15:00.923Z,65.57
2023-04-16T04:16:00.965Z,65.57
2023-04-16T04:17:00.933Z,65.47
2023-04-16T04:18:00.950Z,65.47
2023-04-16T04:19:00.875Z,65.47
2023-04-16T04:20:01.952Z,65.47
2023-04-16T04:21:00.869Z,65.47
2023-04-16T04:22:00.850Z,65.57
2023-04-16T04:23:00.839Z,65.57
2023-04-16T04:24:00.832Z,65.57
2023-04-16T04:25:00.819Z,65.57
2023-04-16T04:26:00.856Z,65.47
2023-04-16T04:27:00.803Z,65.47
2023-04-16T04:28:00.784Z,65.47
2023-04-16T04:29:00.774Z,65.47
2023-04-16T04:30:00.775Z,65.47
2023-04-16T04:31:00.786Z,65.47
2023-04-16T04:32:00.869Z,65.47
2023-04-16T04:33:00.786Z,65.57
2023-04-16T04:34:00.721Z,65.47
2023-04-16T04:35:00.734Z,65.57
2023-04-16T04:36:00.733Z,65.57
2023-04-16T04:37:00.682Z,65.47
2023-04-16T04:38:01.194Z,65.47
2023-04-16T04:39:00.690Z,65.57
2023-04-16T04:40:00.666Z,65.57
2023-04-16T04:41:00.637Z,65.47
2023-04-16T04:42:00.625Z,65.47
2023-04-16T04:43:00.616Z,65.57
2023-04-16T04:44:00.636Z,65.47
2023-04-16T04:45:00.598Z,65.47
2023-04-16T04:46:00.623Z,65.47
2023-04-16T04:47:00.571Z,65.47
2023-04-16T04:48:00.633Z,65.47
2023-04-16T04:49:00.581Z,65.47
2023-04-16T04:50:00.541Z,65.47
2023-04-16T04:51:01.227Z,65.47
2023-04-16T04:52:00.518Z,65.47
2023-04-16T04:53:00.540Z,65.57
2023-04-16T04:54:00.493Z,65.57
2023-04-16T04:55:00.507Z,65.57
2023-04-16T04:56:09.222Z,65.57
2023-04-16T04:57:01.467Z,65.57
2023-04-16T04:58:00.481Z,65.47
2023-04-16T04:59:00.440Z,65.47
2023-04-16T05:00:00.438Z,65.47
2023-04-16T05:01:00.491Z,65.47
2023-04-16T05:02:00.458Z,65.47
2023-04-16T05:03:00.558Z,65.57
2023-04-16T05:04:00.432Z,65.57
2023-04-16T05:05:00.489Z,65.57
2023-04-16T05:06:00.368Z,65.57
2023-04-16T05:07:00.363Z,65.57
2023-04-16T05:08:00.391Z,65.57
2023-04-16T05:09:00.345Z,65.57
2023-04-16T05:10:00.331Z,65.57
2023-04-16T05:11:00.308Z,65.57
2023-04-16T05:12:00.300Z,65.47
2023-04-16T05:13:00.305Z,65.47
2023-04-16T05:14:00.324Z,65.47
2023-04-16T05:15:00.276Z,65.47
2023-04-16T05:16:00.269Z,65.47
2023-04-16T05:17:00.344Z,65.47
2023-04-16T05:18:00.293Z,65.47
2023-04-16T05:19:00.259Z,65.57
2023-04-16T05:20:00.245Z,65.47
2023-04-16T05:21:00.238Z,65.57
2023-04-16T05:22:00.195Z,65.57
2023-04-16T05:23:00.209Z,65.57
2023-04-16T05:24:00.170Z,65.47
2023-04-16T05:25:00.185Z,65.47
2023-04-16T05:26:00.189Z,65.57
2023-04-16T05:27:00.146Z,65.57
2023-04-16T05:28:00.193Z,65.47
2023-04-16T05:29:00.170Z,65.47
2023-04-16T05:30:00.144Z,65.47
2023-04-16T05:31:00.145Z,65.57
2023-04-16T05:32:00.097Z,65.57
2023-04-16T05:33:00.237Z,65.57
2023-04-16T05:34:00.065Z,65.57
2023-04-16T05:35:00.083Z,65.57
2023-04-16T05:36:00.043Z,65.57
2023-04-16T05:37:00.064Z,65.57
2023-04-16T05:38:00.025Z,65.57
2023-04-16T05:39:00.036Z,65.57
2023-04-16T05:39:59.993Z,65.57
2023-04-16T05:41:00.012Z,65.57
2023-04-16T05:42:00.005Z,65.57
2023-04-16T05:42:59.965Z,65.57
2023-04-16T05:43:59.945Z,65.57
2023-04-16T05:44:59.936Z,65.57
2023-04-16T05:45:59.952Z,65.57
2023-04-16T05:46:59.948Z,65.57
2023-04-16T05:47:59.945Z,65.57
2023-04-16T05:48:59.895Z,65.47
2023-04-16T05:49:59.890Z,65.57
2023-04-16T05:50:59.885Z,65.57
2023-04-16T05:51:59.859Z,65.57
2023-04-16T05:52:59.904Z,65.57
2023-04-16T05:53:59.837Z,65.57
2023-04-16T05:54:59.828Z,65.57
2023-04-16T05:55:59.858Z,65.57
2023-04-16T05:56:59.805Z,65.57
2023-04-16T05:57:59.798Z,65.57
2023-04-16T05:58:59.785Z,65.57
2023-04-16T05:59:59.780Z,65.57
2023-04-16T06:00:59.794Z,65.57
2023-04-16T06:01:59.812Z,65.57
2023-04-16T06:03:00.005Z,65.57
2023-04-16T06:03:59.829Z,65.57
2023-04-16T06:04:59.715Z,65.57
2023-04-16T06:05:59.793Z,65.57
2023-04-16T06:06:59.704Z,65.47
2023-04-16T06:07:59.695Z,65.57
2023-04-16T06:08:59.701Z,65.47
2023-04-16T06:09:59.664Z,65.47
2023-04-16T06:10:59.655Z,65.57
2023-04-16T06:11:59.674Z,65.57
2023-04-16T06:12:59.636Z,65.57
2023-04-16T06:13:59.637Z,65.47
2023-04-16T06:14:59.646Z,65.57
2023-04-16T06:15:59.627Z,65.47
2023-04-16T06:16:59.589Z,65.57
2023-04-16T06:18:00.868Z,65.57
2023-04-16T06:18:59.589Z,65.57
2023-04-16T06:19:59.587Z,65.47
2023-04-16T06:20:59.553Z,65.57
2023-04-16T06:21:59.532Z,65.57
2023-04-16T06:22:59.526Z,65.57
2023-04-16T06:23:59.514Z,65.57
2023-04-16T06:24:59.554Z,65.57
2023-04-16T06:25:59.488Z,65.57
2023-04-16T06:26:59.505Z,65.57
2023-04-16T06:27:59.483Z,65.57
2023-04-16T06:28:59.465Z,65.57
2023-04-16T06:29:59.469Z,65.57
2023-04-16T06:30:59.437Z,65.57
2023-04-16T06:31:59.425Z,65.57
2023-04-16T06:32:59.519Z,65.57
2023-04-16T06:33:59.414Z,65.57
2023-04-16T06:34:59.442Z,65.57
2023-04-16T06:35:59.410Z,65.57
2023-04-16T06:36:59.370Z,65.57
2023-04-16T06:37:59.355Z,65.57
2023-04-16T06:38:59.373Z,65.57
2023-04-16T06:39:59.332Z,65.57
2023-04-16T06:40:59.386Z,65.57
2023-04-16T06:41:59.310Z,65.57
2023-04-16T06:42:59.304Z,65.57
2023-04-16T06:43:59.318Z,65.57
2023-04-16T06:44:59.299Z,65.57
2023-04-16T06:45:59.269Z,65.57
2023-04-16T06:46:59.330Z,65.57
2023-04-16T06:47:59.298Z,65.57
2023-04-16T06:48:59.268Z,65.57
2023-04-16T06:49:59.260Z,65.57
2023-04-16T06:50:59.222Z,65.57
2023-04-16T06:51:59.212Z,65.57
2023-04-16T06:52:59.192Z,65.57
2023-04-16T06:53:59.190Z,65.57
2023-04-16T06:54:59.169Z,65.57
2023-04-16T06:55:59.190Z,65.57
2023-04-16T06:56:59.180Z,65.57
2023-04-16T06:57:59.138Z,65.57
2023-04-16T06:58:59.123Z,65.57
2023-04-16T06:59:59.120Z,65.57
2023-04-16T07:00:59.129Z,65.57
2023-04-16T07:01:59.229Z,65.57
2023-04-16T07:02:59.172Z,65.57
2023-04-16T07:03:59.379Z,65.57
2023-04-16T07:04:59.064Z,65.57
2023-04-16T07:05:59.080Z,65.57
2023-04-16T07:06:59.041Z,65.57
2023-04-16T07:07:59.033Z,65.57
2023-04-16T07:08:59.020Z,65.57
2023-04-16T07:09:59.009Z,65.57
2023-04-16T07:10:59.028Z,65.57
2023-04-16T07:11:58.989Z,65.57
2023-04-16T07:12:59.011Z,65.57
2023-04-16T07:13:59.056Z,65.57
2023-04-16T07:14:58.956Z,65.57
2023-04-16T07:15:58.941Z,65.57
2023-04-16T07:16:58.964Z,65.57
2023-04-16T07:17:58.968Z,65.57
2023-04-16T07:18:58.958Z,65.57
2023-04-16T07:19:58.908Z,65.57
2023-04-16T07:20:58.897Z,65.57
2023-04-16T07:21:58.887Z,65.57
2023-04-16T07:22:58.895Z,65.57
2023-04-16T07:23:58.858Z,65.57
2023-04-16T07:24:58.847Z,65.57
2023-04-16T07:25:58.837Z,65.57
2023-04-16T07:26:58.887Z,65.57
2023-04-16T07:27:58.812Z,65.57
2023-04-16T07:28:58.848Z,65.57
2023-04-16T07:29:58.789Z,65.57
2023-04-16T07:30:58.798Z,65.57
2023-04-16T07:31:58.852Z,65.57
2023-04-16T07:32:58.802Z,65.57
2023-04-16T07:33:58.750Z,65.57
2023-04-16T07:34:58.734Z,65.57
2023-04-16T07:35:58.738Z,65.57
2023-04-16T07:36:58.747Z,65.57
2023-04-16T07:37:58.708Z,65.57
2023-04-16T07:38:58.727Z,65.57
2023-04-16T07:39:58.687Z,65.57
2023-04-16T07:40:58.670Z,65.57
2023-04-16T07:41:58.664Z,65.57
2023-04-16T07:42:58.649Z,65.57
2023-04-16T07:43:58.671Z,65.57
2023-04-16T07:44:58.649Z,65.57
2023-04-16T07:45:58.646Z,65.57
2023-04-16T07:46:58.630Z,65.57
2023-04-16T07:47:58.697Z,65.57
2023-04-16T07:48:58.613Z,65.57
2023-04-16T07:49:58.571Z,65.57
2023-04-16T07:50:58.573Z,65.57
2023-04-16T07:51:58.550Z,65.57
2023-04-16T07:52:58.582Z,65.57
2023-04-16T07:53:58.526Z,65.57
2023-04-16T07:54:58.518Z,65.57
2023-04-16T07:55:58.507Z,65.57
2023-04-16T07:56:58.504Z,65.57
2023-04-16T07:57:58.517Z,65.57
2023-04-16T07:59:07.986Z,65.57
2023-04-16T07:59:59.456Z,65.57
2023-04-16T08:00:58.477Z,65.57
2023-04-16T08:01:58.500Z,65.57
2023-04-16T08:02:58.660Z,65.57
2023-04-16T08:03:58.562Z,65.57
2023-04-16T08:04:58.509Z,65.57
2023-04-16T08:05:58.394Z,65.57
2023-04-16T08:06:58.385Z,65.57
2023-04-16T08:07:58.372Z,65.57
2023-04-16T08:08:58.395Z,65.57
2023-04-16T08:09:58.353Z,65.57
2023-04-16T08:10:58.351Z,65.57
2023-04-16T08:11:58.330Z,65.57
2023-04-16T08:12:58.321Z,65.57
2023-04-16T08:13:58.338Z,65.57
2023-04-16T08:14:58.298Z,65.57
2023-04-16T08:15:58.379Z,65.57
2023-04-16T08:16:58.300Z,65.57
2023-04-16T08:17:58.277Z,65.57
2023-04-16T08:18:58.259Z,65.57
2023-04-16T08:19:58.244Z,65.57
2023-04-16T08:20:58.234Z,65.57
2023-04-16T08:21:58.258Z,65.57
2023-04-16T08:22:58.212Z,65.57
2023-04-16T08:23:58.225Z,65.57
2023-04-16T08:24:58.221Z,65.57
2023-04-16T08:25:58.179Z,65.57
2023-04-16T08:27:08.090Z,65.57
2023-04-16T08:27:59.153Z,65.57
2023-04-16T08:28:58.146Z,65.67
2023-04-16T08:29:58.166Z,65.67
2023-04-16T08:30:58.168Z,65.57
2023-04-16T08:31:58.152Z,65.57
2023-04-16T08:32:58.185Z,65.57
2023-04-16T08:33:58.092Z,65.57
2023-04-16T08:34:58.080Z,65.57
2023-04-16T08:35:58.073Z,65.67
2023-04-16T08:36:58.094Z,65.57
2023-04-16T08:37:58.048Z,65.57
2023-04-16T08:38:58.040Z,65.57
2023-04-16T08:39:58.029Z,65.57
2023-04-16T08:40:58.044Z,65.57
2023-04-16T08:41:58.004Z,65.57
2023-04-16T08:42:58.020Z,65.67
2023-04-16T08:43:57.989Z,65.57
2023-04-16T08:44:57.972Z,65.57
2023-04-16T08:45:57.998Z,65.57
2023-04-16T08:46:58.006Z,65.57
2023-04-16T08:47:57.964Z,65.57
2023-04-16T08:48:57.960Z,65.67
2023-04-16T08:49:58.521Z,65.57
2023-04-16T08:50:57.935Z,65.57
2023-04-16T08:51:57.907Z,65.57
2023-04-16T08:52:57.882Z,65.57
2023-04-16T08:53:57.874Z,65.57
2023-04-16T08:54:57.888Z,65.57
2023-04-16T08:55:57.877Z,65.57
2023-04-16T08:56:57.837Z,65.57
2023-04-16T08:57:57.834Z,65.57
2023-04-16T08:58:57.848Z,65.57
2023-04-16T08:59:57.810Z,65.57
2023-04-16T09:00:57.823Z,65.57
2023-04-16T09:01:57.995Z,65.57
2023-04-16T09:02:57.972Z,65.57
2023-04-16T09:03:57.919Z,65.57
2023-04-16T09:04:57.854Z,65.57
2023-04-16T09:05:57.772Z,65.57
2023-04-16T09:06:57.742Z,65.57
2023-04-16T09:07:57.718Z,65.57
2023-04-16T09:08:57.707Z,65.67
2023-04-16T09:09:57.700Z,65.67
2023-04-16T09:10:57.685Z,65.67
2023-04-16T09:11:57.709Z,65.67
2023-04-16T09:12:57.664Z,65.57
2023-04-16T09:13:57.652Z,65.67
2023-04-16T09:14:57.655Z,65.57
2023-04-16T09:15:57.648Z,65.67
2023-04-16T09:16:57.656Z,65.67
2023-04-16T09:17:57.767Z,65.67
2023-04-16T09:18:57.600Z,65.57
2023-04-16T09:19:57.586Z,65.57
2023-04-16T09:20:57.607Z,65.57
2023-04-16T09:21:57.593Z,65.57
2023-04-16T09:22:57.562Z,65.67
2023-04-16T09:23:57.552Z,65.57
2023-04-16T09:24:57.540Z,65.57
2023-04-16T09:25:57.558Z,65.47
2023-04-16T09:26:57.513Z,65.47
2023-04-16T09:27:57.502Z,65.47
2023-04-16T09:28:57.501Z,65.47
2023-04-16T09:29:57.481Z,65.47
2023-04-16T09:30:57.499Z,65.57
2023-04-16T09:31:57.487Z,65.57
2023-04-16T09:32:57.503Z,65.57
2023-04-16T09:33:57.440Z,65.57
2023-04-16T09:34:57.494Z,65.57
2023-04-16T09:35:57.421Z,65.57
2023-04-16T09:36:57.424Z,65.57
2023-04-16T09:37:57.395Z,65.57
2023-04-16T09:38:57.818Z,65.57
2023-04-16T09:39:57.411Z,65.57
2023-04-16T09:40:57.369Z,65.57
2023-04-16T09:41:57.352Z,65.57
2023-04-16T09:42:57.368Z,65.57
2023-04-16T09:43:57.338Z,65.57
2023-04-16T09:44:59.907Z,65.57
2023-04-16T09:45:57.343Z,65.57
2023-04-16T09:46:57.330Z,65.57
2023-04-16T09:47:57.328Z,65.57
2023-04-16T09:48:57.271Z,65.57
2023-04-16T09:49:57.268Z,65.67
2023-04-16T09:50:57.252Z,65.67
2023-04-16T09:51:57.269Z,65.67
2023-04-16T09:52:57.284Z,65.67
2023-04-16T09:53:57.225Z,65.67
2023-04-16T09:54:57.211Z,65.57
2023-04-16T09:55:57.211Z,65.57
2023-04-16T09:56:57.196Z,65.47
2023-04-16T09:57:57.208Z,65.47
2023-04-16T09:58:57.163Z,65.47
2023-04-16T09:59:57.154Z,65.47
2023-04-16T10:00:57.235Z,65.57
2023-04-16T10:02:07.734Z,65.57
2023-04-16T10:02:58.283Z,65.57
2023-04-16T10:03:57.204Z,65.47
2023-04-16T10:04:57.142Z,65.57
2023-04-16T10:05:57.096Z,65.67
2023-04-16T10:06:57.088Z,65.57
2023-04-16T10:07:57.073Z,65.57
2023-04-16T10:08:57.269Z,65.67
2023-04-16T10:09:57.045Z,65.67
2023-04-16T10:10:57.078Z,65.67
2023-04-16T10:11:57.023Z,65.78
2023-04-16T10:12:57.029Z,65.78
2023-04-16T10:13:57.051Z,65.54
2023-04-16T10:14:56.998Z,65.34
2023-04-16T10:15:56.992Z,65.24
2023-04-16T10:16:57.033Z,65.24
2023-04-16T10:17:57.059Z,65.24
2023-04-16T10:18:56.996Z,65.24
2023-04-16T10:19:56.940Z,65.37
2023-04-16T10:20:56.972Z,65.37
2023-04-16T10:21:56.922Z,65.44
2023-04-16T10:22:56.914Z,65.44
2023-04-16T10:23:56.935Z,65.47
2023-04-16T10:24:56.914Z,65.47
2023-04-16T10:25:57.682Z,65.57
2023-04-16T10:26:56.868Z,65.57
2023-04-16T10:27:56.859Z,65.57
2023-04-16T10:28:56.870Z,65.57
2023-04-16T10:29:56.834Z,65.47
2023-04-16T10:30:56.861Z,65.37
2023-04-16T10:31:56.820Z,65.47
2023-04-16T10:32:59.665Z,65.47
2023-04-16T10:33:56.817Z,65.47
2023-04-16T10:34:56.779Z,65.47
2023-04-16T10:36:07.016Z,65.47
2023-04-16T10:36:57.770Z,65.47
2023-04-16T10:37:56.750Z,65.47
2023-04-16T10:38:56.775Z,65.57
2023-04-16T10:39:56.723Z,65.57
2023-04-16T10:40:56.736Z,65.57
2023-04-16T10:41:56.701Z,65.57
2023-04-16T10:42:56.727Z,65.57
2023-04-16T10:43:56.679Z,65.57
2023-04-16T10:44:56.668Z,65.57
2023-04-16T10:45:56.686Z,65.57
2023-04-16T10:46:56.680Z,65.47
2023-04-16T10:47:56.732Z,65.47
2023-04-16T10:48:56.628Z,65.47
2023-04-16T10:49:56.612Z,65.47
2023-04-16T10:50:56.599Z,65.47
2023-04-16T10:51:56.657Z,65.47
2023-04-16T10:52:56.584Z,65.57
2023-04-16T10:53:56.580Z,65.57
2023-04-16T10:54:56.586Z,65.57
2023-04-16T10:55:56.547Z,65.57
2023-04-16T10:56:56.559Z,65.57
2023-04-16T10:57:56.525Z,65.57
2023-04-16T10:58:56.544Z,65.57
2023-04-16T10:59:56.504Z,65.67
2023-04-16T11:00:56.492Z,65.57
2023-04-16T11:01:56.631Z,65.57
2023-04-16T11:02:56.563Z,65.67
2023-04-16T11:03:56.680Z,65.67
2023-04-16T11:04:56.554Z,65.57
2023-04-16T11:05:56.446Z,65.67
2023-04-16T11:06:56.439Z,65.67
2023-04-16T11:07:56.414Z,65.57
2023-04-16T11:08:56.431Z,65.67
2023-04-16T11:09:56.399Z,65.57
2023-04-16T11:10:56.382Z,65.57
2023-04-16T11:11:56.378Z,65.57
2023-04-16T11:12:56.385Z,65.67
2023-04-16T11:13:56.441Z,65.57
2023-04-16T11:14:56.339Z,65.57
2023-04-16T11:15:56.381Z,65.67
2023-04-16T11:16:56.315Z,65.57
2023-04-16T11:17:56.396Z,65.57
2023-04-16T11:18:56.881Z,65.57
2023-04-16T11:19:56.281Z,65.67
2023-04-16T11:20:56.269Z,65.57
2023-04-16T11:21:56.330Z,65.67
2023-04-16T11:22:56.251Z,65.67
2023-04-16T11:23:56.265Z,65.67
2023-04-16T11:24:56.254Z,65.57
2023-04-16T11:25:56.254Z,65.57
2023-04-16T11:26:56.212Z,65.57
2023-04-16T11:27:56.230Z,65.67
2023-04-16T11:28:56.232Z,65.67
2023-04-16T11:29:56.171Z,65.57
2023-04-16T11:30:56.222Z,65.67
2023-04-16T11:31:56.159Z,65.67
2023-04-16T11:32:56.287Z,65.67
2023-04-16T11:33:56.149Z,65.67
2023-04-16T11:34:56.122Z,65.67
2023-04-16T11:35:56.107Z,65.67
2023-04-16T11:36:56.093Z,65.67
2023-04-16T11:37:56.114Z,65.67
2023-04-16T11:38:56.076Z,65.57
2023-04-16T11:39:56.068Z,65.67
2023-04-16T11:40:56.086Z,65.67
2023-04-16T11:41:56.149Z,65.67
2023-04-16T11:42:56.846Z,65.67
2023-04-16T11:43:56.047Z,65.67
2023-04-16T11:44:56.034Z,65.67
2023-04-16T11:45:56.008Z,65.67
2023-04-16T11:46:56.105Z,65.67
2023-04-16T11:47:56.049Z,65.67
2023-04-16T11:48:56.272Z,65.67
2023-04-16T11:49:55.953Z,65.67
2023-04-16T11:50:55.943Z,65.67
2023-04-16T11:51:55.962Z,65.67
2023-04-16T11:52:55.923Z,65.67
2023-04-16T11:53:55.940Z,65.67
2023-04-16T11:54:55.906Z,65.67
2023-04-16T11:55:55.889Z,65.67
2023-04-16T11:56:55.885Z,65.67
2023-04-16T11:57:55.869Z,65.67
2023-04-16T11:58:55.893Z,65.67
2023-04-16T12:00:01.313Z,65.67
2023-04-16T12:00:56.888Z,65.67
2023-04-16T12:01:56.010Z,65.67
2023-04-16T12:02:56.054Z,65.67
2023-04-16T12:03:55.907Z,65.67
2023-04-16T12:04:55.863Z,65.67
2023-04-16T12:05:55.788Z,65.67
2023-04-16T12:06:55.770Z,65.67
2023-04-16T12:07:55.789Z,65.67
2023-04-16T12:08:55.749Z,65.67
2023-04-16T12:09:55.740Z,65.67
2023-04-16T12:10:55.732Z,65.67
2023-04-16T12:11:55.730Z,65.67
2023-04-16T12:12:55.746Z,65.67
2023-04-16T12:13:55.701Z,65.67
2023-04-16T12:14:55.686Z,65.67
2023-04-16T12:15:55.675Z,65.67
2023-04-16T12:16:55.732Z,65.67
2023-04-16T12:17:55.729Z,65.67
2023-04-16T12:18:55.642Z,65.67
2023-04-16T12:19:55.641Z,65.67
2023-04-16T12:20:55.618Z,65.67
2023-04-16T12:21:55.618Z,65.67
2023-04-16T12:22:55.635Z,65.67
2023-04-16T12:23:55.609Z,65.67
2023-04-16T12:24:55.575Z,65.67
2023-04-16T12:25:55.580Z,65.67
2023-04-16T12:26:55.560Z,65.67
2023-04-16T12:27:55.605Z,65.67
2023-04-16T12:28:55.564Z,65.67
2023-04-16T12:29:55.525Z,65.67
2023-04-16T12:30:55.557Z,65.67
2023-04-16T12:31:55.500Z,65.57
2023-04-16T12:32:57.335Z,65.57
2023-04-16T12:33:55.510Z,65.57
2023-04-16T12:34:55.472Z,65.57
2023-04-16T12:35:55.495Z,65.67
2023-04-16T12:36:55.450Z,65.67
2023-04-16T12:37:55.435Z,65.67
2023-04-16T12:38:55.463Z,65.57
2023-04-16T12:39:55.423Z,65.57
2023-04-16T12:40:55.420Z,65.57
2023-04-16T12:41:55.389Z,65.57
2023-04-16T12:42:55.423Z,65.57
2023-04-16T12:43:55.369Z,65.57
2023-04-16T12:44:55.360Z,65.57
2023-04-16T12:45:55.399Z,65.57
2023-04-16T12:46:55.345Z,65.67
2023-04-16T12:47:55.401Z,65.78
2023-04-16T12:48:55.344Z,65.78
2023-04-16T12:49:55.335Z,65.98
2023-04-16T12:50:55.306Z,65.98
2023-04-16T12:51:55.282Z,65.88